createdAt,value
2023-02-16T00:00:33.810Z,50.70
2023-02-16T00:03:00.438Z,50.70
2023-02-16T00:05:32.864Z,50.80
2023-02-16T00:08:00.289Z,50.70
2023-02-16T00:10:33.058Z,50.80
2023-02-16T00:13:19.001Z,50.80
2023-02-16T00:15:46.059Z,50.80
2023-02-16T00:18:21.463Z,50.70
2023-02-16T00:20:49.014Z,50.80
2023-02-16T00:23:16.097Z,50.80
2023-02-16T00:25:42.989Z,50.80
2023-02-16T00:28:19.293Z,50.80
2023-02-16T00:30:46.223Z,50.70
2023-02-16T00:33:18.177Z,50.80
2023-02-16T00:35:44.953Z,50.80
2023-02-16T00:38:12.654Z,50.80
2023-02-16T00:40:40.306Z,50.70
2023-02-16T00:43:07.469Z,50.80
2023-02-16T00:45:37.226Z,50.80
2023-02-16T00:48:04.411Z,50.80
2023-02-16T00:50:33.157Z,50.80
2023-02-16T00:53:00.615Z,50.90
2023-02-16T00:55:31.744Z,50.80
2023-02-16T00:58:20.940Z,50.80
2023-02-16T01:00:54.306Z,50.80
2023-02-16T01:03:29.854Z,50.80
2023-02-16T01:06:15.017Z,50.80
2023-02-16T01:09:00.950Z,50.80
2023-02-16T01:11:28.175Z,50.90
2023-02-16T01:13:56.499Z,50.80
2023-02-16T01:16:39.756Z,50.80
2023-02-16T01:19:06.531Z,50.80
2023-02-16T01:21:33.406Z,50.80
2023-02-16T01:24:00.571Z,50.80
2023-02-16T01:26:27.300Z,50.80
2023-02-16T01:28:53.854Z,50.80
2023-02-16T01:31:20.531Z,50.70
2023-02-16T01:33:47.195Z,50.80
2023-02-16T01:36:24.421Z,50.80
2023-02-16T01:38:51.238Z,50.80
2023-02-16T01:41:43.763Z,50.80
2023-02-16T01:44:36.447Z,50.90
2023-02-16T01:47:12.761Z,50.80
2023-02-16T01:49:39.357Z,50.80
2023-02-16T01:52:28.594Z,50.80
2023-02-16T01:55:07.874Z,50.90
2023-02-16T01:57:43.250Z,50.80
2023-02-16T02:00:13.182Z,50.80
2023-02-16T02:02:44.147Z,50.90
2023-02-16T02:05:37.078Z,50.80
2023-02-16T02:08:06.822Z,50.80
2023-02-16T02:10:57.128Z,50.80
2023-02-16T02:13:45.730Z,50.80
2023-02-16T02:16:16.068Z,50.80
2023-02-16T02:18:43.190Z,50.90
2023-02-16T02:21:58.027Z,50.90
2023-02-16T02:24:48.029Z,50.90
2023-02-16T02:27:27.731Z,50.90
2023-02-16T02:30:13.091Z,50.90
2023-02-16T02:32:59.903Z,50.80
2023-02-16T02:35:35.407Z,50.80
2023-02-16T02:38:19.634Z,50.90
2023-02-16T02:41:01.512Z,50.90
2023-02-16T02:43:50.523Z,50.90
2023-02-16T02:46:25.019Z,50.90
2023-02-16T02:48:51.863Z,50.90
2023-02-16T02:51:31.097Z,50.90
2023-02-16T02:54:45.442Z,50.90
2023-02-16T02:57:43.277Z,50.90
2023-02-16T03:00:38.892Z,50.90
2023-02-16T03:03:32.769Z,51.00
2023-02-16T03:06:08.086Z,51.00
2023-02-16T03:08:38.567Z,51.00
2023-02-16T03:11:30.155Z,51.00
2023-02-16T03:14:06.732Z,51.00
2023-02-16T03:17:10.334Z,50.90
2023-02-16T03:19:58.718Z,51.00
2023-02-16T03:26:31.800Z,51.00
2023-02-16T03:29:16.643Z,51.00
2023-02-16T03:31:44.957Z,51.00
2023-02-16T03:34:12.110Z,51.00
2023-02-16T03:36:42.560Z,51.00
2023-02-16T03:39:10.349Z,51.00
2023-02-16T03:41:43.861Z,51.00
2023-02-16T03:44:10.507Z,51.00
2023-02-16T03:46:37.582Z,51.00
2023-02-16T03:49:04.139Z,51.10
2023-02-16T03:51:30.700Z,51.00
2023-02-16T03:53:57.297Z,51.00
2023-02-16T03:56:23.972Z,51.10
2023-02-16T03:58:50.565Z,51.00
2023-02-16T04:01:17.191Z,51.00
2023-02-16T04:03:43.912Z,51.00
2023-02-16T04:06:10.638Z,51.10
2023-02-16T04:08:37.353Z,51.10
2023-02-16T04:11:24.161Z,51.10
2023-02-16T04:13:50.764Z,51.10
2023-02-16T04:16:17.365Z,51.10
2023-02-16T04:18:44.097Z,51.70
2023-02-16T04:21:10.657Z,51.10
2023-02-16T04:23:37.258Z,51.10
2023-02-16T04:26:03.927Z,51.10
2023-02-16T04:28:30.508Z,51.10
2023-02-16T04:30:57.194Z,51.10
2023-02-16T04:33:23.798Z,51.10
2023-02-16T04:35:50.471Z,51.10
2023-02-16T04:38:17.130Z,51.10
2023-02-16T04:40:43.742Z,51.10
2023-02-16T04:43:10.341Z,51.10
2023-02-16T04:45:36.900Z,51.10
2023-02-16T04:48:03.693Z,51.10
2023-02-16T04:50:30.313Z,51.10
2023-02-16T04:52:56.920Z,51.10
2023-02-16T04:55:23.465Z,51.10
2023-02-16T04:57:50.193Z,51.10
2023-02-16T05:00:17.048Z,51.10
2023-02-16T05:02:43.714Z,51.10
2023-02-16T05:05:10.327Z,51.10
2023-02-16T05:07:36.971Z,51.10
2023-02-16T05:10:04.394Z,51.10
2023-02-16T05:12:49.538Z,51.10
2023-02-16T05:15:16.145Z,51.10
2023-02-16T05:17:42.750Z,51.20
2023-02-16T05:20:10.382Z,51.10
2023-02-16T05:22:39.133Z,51.10
2023-02-16T05:25:07.068Z,51.10
2023-02-16T05:27:33.824Z,51.10
2023-02-16T05:30:00.464Z,51.10
2023-02-16T05:32:27.256Z,51.20
2023-02-16T05:34:53.829Z,51.10
2023-02-16T05:37:20.652Z,51.20
2023-02-16T05:39:47.336Z,51.10
2023-02-16T05:42:14.006Z,51.10
2023-02-16T05:44:40.652Z,51.10
2023-02-16T05:47:07.541Z,51.10
2023-02-16T05:49:34.269Z,51.10
2023-02-16T05:52:00.962Z,51.30
2023-02-16T05:54:28.030Z,51.00
2023-02-16T05:56:55.181Z,50.90
2023-02-16T05:59:21.937Z,51.00
2023-02-16T06:01:51.649Z,51.40
2023-02-16T06:04:20.060Z,52.10
2023-02-16T06:06:46.867Z,52.30
2023-02-16T06:09:13.505Z,52.70
2023-02-16T06:11:40.272Z,52.60
2023-02-16T06:14:11.406Z,52.40
2023-02-16T06:16:40.367Z,53.00
2023-02-16T06:19:07.684Z,52.10
2023-02-16T06:21:35.365Z,52.10
2023-02-16T06:24:02.061Z,51.60
2023-02-16T06:26:29.067Z,51.70
2023-02-16T06:28:55.976Z,51.80
2023-02-16T06:31:23.636Z,52.30
2023-02-16T06:33:50.492Z,52.20
2023-02-16T06:36:17.573Z,51.10
2023-02-16T06:38:44.483Z,51.60
2023-02-16T06:41:11.981Z,51.90
2023-02-16T06:43:38.767Z,51.90
2023-02-16T06:46:05.421Z,51.80
2023-02-16T06:48:31.978Z,51.70
2023-02-16T06:50:58.546Z,51.60
2023-02-16T06:53:25.403Z,51.50
2023-02-16T06:55:52.156Z,51.50
2023-02-16T06:58:18.751Z,51.40
2023-02-16T07:00:45.382Z,51.40
2023-02-16T07:03:11.949Z,51.20
2023-02-16T07:05:38.595Z,51.20
2023-02-16T07:08:05.533Z,51.20
2023-02-16T07:10:43.876Z,51.10
2023-02-16T07:13:15.914Z,51.20
2023-02-16T07:15:42.478Z,51.00
2023-02-16T07:18:09.169Z,50.90
2023-02-16T07:20:35.902Z,50.90
2023-02-16T07:23:02.545Z,50.90
2023-02-16T07:25:29.259Z,50.80
2023-02-16T07:27:55.824Z,50.80
2023-02-16T07:30:22.673Z,50.70
2023-02-16T07:32:49.259Z,50.80
2023-02-16T07:35:15.839Z,50.70
2023-02-16T07:37:42.391Z,50.70
2023-02-16T07:40:09.425Z,50.60
2023-02-16T07:42:36.110Z,50.40
2023-02-16T07:45:02.892Z,50.50
2023-02-16T07:47:29.449Z,50.60
2023-02-16T07:49:56.063Z,50.50
2023-02-16T07:52:22.804Z,50.40
2023-02-16T07:54:49.343Z,50.40
2023-02-16T07:57:15.893Z,50.30
2023-02-16T07:59:42.573Z,50.30
2023-02-16T08:02:18.298Z,50.10
2023-02-16T08:04:45.729Z,50.20
2023-02-16T08:07:17.630Z,50.00
2023-02-16T08:09:44.624Z,50.10
2023-02-16T08:12:13.442Z,50.00
2023-02-16T08:14:40.223Z,50.10
2023-02-16T08:17:07.803Z,50.10
2023-02-16T08:19:34.592Z,50.10
2023-02-16T08:22:02.377Z,50.00
2023-02-16T08:24:29.257Z,50.00
2023-02-16T08:26:56.595Z,50.10
2023-02-16T08:29:24.257Z,49.80
2023-02-16T08:31:51.573Z,49.80
2023-02-16T08:34:19.655Z,49.80
2023-02-16T08:36:47.856Z,49.80
2023-02-16T08:39:19.721Z,49.70
2023-02-16T08:41:50.170Z,49.80
2023-02-16T08:44:18.073Z,49.90
2023-02-16T08:46:46.463Z,49.80
2023-02-16T08:49:14.573Z,49.90
2023-02-16T08:51:45.107Z,49.70
2023-02-16T08:54:16.964Z,49.80
2023-02-16T08:56:46.956Z,49.70
2023-02-16T08:59:16.728Z,49.70
2023-02-16T09:01:43.626Z,49.70
2023-02-16T09:04:10.659Z,49.60
2023-02-16T09:06:42.256Z,49.60
2023-02-16T09:09:09.701Z,49.80
2023-02-16T09:11:37.198Z,49.70
2023-02-16T09:14:04.919Z,49.70
2023-02-16T09:16:38.340Z,49.70
2023-02-16T09:19:06.353Z,49.60
2023-02-16T09:21:33.372Z,49.60
2023-02-16T09:24:03.335Z,49.70
2023-02-16T09:26:38.378Z,49.60
2023-02-16T09:29:06.898Z,49.60
2023-02-16T09:31:37.215Z,49.50
2023-02-16T09:34:08.668Z,49.40
2023-02-16T09:36:37.557Z,49.40
2023-02-16T09:39:04.271Z,49.50
2023-02-16T09:41:57.071Z,49.50
2023-02-16T09:44:37.922Z,49.40
2023-02-16T09:47:10.113Z,49.40
2023-02-16T09:49:43.994Z,49.40
2023-02-16T09:52:44.770Z,49.30
2023-02-16T09:55:14.908Z,49.40
2023-02-16T09:58:20.323Z,49.30
2023-02-16T10:01:02.248Z,49.20
2023-02-16T10:03:32.161Z,49.40
2023-02-16T10:06:08.050Z,49.40
2023-02-16T10:08:42.206Z,49.30
2023-02-16T10:11:35.457Z,49.30
2023-02-16T10:14:30.177Z,49.30
2023-02-16T10:17:01.720Z,49.10
2023-02-16T10:19:39.138Z,49.30
2023-02-16T10:22:13.043Z,49.30
2023-02-16T10:24:49.763Z,49.30
2023-02-16T10:27:16.967Z,49.30
2023-02-16T10:29:43.682Z,49.20
2023-02-16T10:32:22.458Z,49.10
2023-02-16T10:34:51.683Z,49.30
2023-02-16T10:37:33.494Z,49.30
2023-02-16T10:40:32.965Z,49.20
2023-02-16T10:43:32.305Z,49.20
2023-02-16T10:46:01.720Z,49.10
2023-02-16T10:48:28.602Z,49.20
2023-02-16T10:51:02.916Z,49.10
2023-02-16T10:53:39.632Z,49.20
2023-02-16T10:56:39.278Z,49.10
2023-02-16T10:59:14.562Z,49.20
2023-02-16T11:01:57.369Z,49.00
2023-02-16T11:04:41.408Z,48.90
2023-02-16T11:07:14.305Z,48.80
2023-02-16T11:09:42.357Z,48.80
2023-02-16T11:12:32.314Z,48.80
2023-02-16T11:15:03.632Z,48.90
2023-02-16T11:17:33.280Z,48.80
2023-02-16T11:20:05.648Z,48.90
2023-02-16T11:22:38.995Z,49.00
2023-02-16T11:25:20.545Z,48.80
2023-02-16T11:27:57.149Z,48.90
2023-02-16T11:30:29.363Z,48.40
2023-02-16T11:32:56.599Z,49.00
2023-02-16T11:35:23.227Z,48.90
2023-02-16T11:37:50.533Z,49.00
2023-02-16T11:40:24.016Z,48.90
2023-02-16T11:42:56.134Z,48.70
2023-02-16T11:45:28.709Z,48.70
2023-02-16T11:48:01.500Z,48.60
2023-02-16T11:50:34.149Z,48.60
2023-02-16T11:53:09.971Z,48.50
2023-02-16T11:55:40.437Z,48.40
2023-02-16T11:58:25.559Z,48.40
2023-02-16T12:01:21.159Z,48.40
2023-02-16T12:04:02.848Z,48.30
2023-02-16T12:06:58.774Z,48.40
2023-02-16T12:09:44.049Z,48.40
2023-02-16T12:12:34.003Z,48.40
2023-02-16T12:15:15.092Z,48.20
2023-02-16T12:17:54.805Z,48.00
2023-02-16T12:20:47.844Z,48.20
2023-02-16T12:23:31.208Z,48.00
2023-02-16T12:26:22.161Z,48.00
2023-02-16T12:28:56.413Z,48.00
2023-02-16T12:31:52.740Z,48.10
2023-02-16T12:34:54.148Z,48.00
2023-02-16T12:37:42.551Z,47.60
2023-02-16T12:40:30.291Z,47.60
2023-02-16T12:43:31.110Z,47.70
2023-02-16T12:46:02.948Z,47.80
2023-02-16T12:49:09.239Z,47.80
2023-02-16T12:51:48.283Z,47.70
2023-02-16T12:54:46.195Z,47.50
2023-02-16T12:57:15.789Z,48.20
2023-02-16T13:00:05.160Z,47.70
2023-02-16T13:02:40.289Z,47.80
2023-02-16T13:05:14.525Z,47.70
2023-02-16T13:07:44.290Z,47.60
2023-02-16T13:10:36.508Z,47.60
2023-02-16T13:13:10.436Z,47.50
2023-02-16T13:15:40.857Z,47.50
2023-02-16T13:18:12.698Z,47.70
2023-02-16T13:20:44.366Z,47.60
2023-02-16T13:23:13.087Z,47.50
2023-02-16T13:25:58.660Z,47.50
2023-02-16T13:28:48.292Z,47.50
2023-02-16T13:31:54.435Z,47.40
2023-02-16T13:34:52.277Z,47.30
2023-02-16T13:37:57.449Z,47.30
2023-02-16T13:40:59.497Z,47.30
2023-02-16T13:44:01.686Z,47.30
2023-02-16T13:46:42.579Z,47.20
2023-02-16T13:49:43.952Z,47.30
2023-02-16T13:52:28.210Z,47.40
2023-02-16T13:54:54.930Z,47.30
2023-02-16T13:57:56.966Z,47.40
2023-02-16T14:00:34.564Z,47.30
2023-02-16T14:03:13.368Z,47.30
2023-02-16T14:05:42.702Z,47.40
2023-02-16T14:08:38.858Z,47.30
2023-02-16T14:11:08.519Z,47.30
2023-02-16T14:13:38.157Z,48.00
2023-02-16T14:16:13.226Z,47.30
2023-02-16T14:18:44.116Z,47.30
2023-02-16T14:21:38.892Z,47.20
2023-02-16T14:24:11.446Z,47.20
2023-02-16T14:26:55.224Z,47.10
2023-02-16T14:29:44.957Z,47.10
2023-02-16T14:32:29.497Z,47.20
2023-02-16T14:35:04.640Z,47.20
2023-02-16T14:37:39.338Z,47.20
2023-02-16T14:40:19.230Z,47.80
2023-02-16T14:42:56.037Z,47.20
2023-02-16T14:45:41.422Z,47.30
2023-02-16T14:48:16.143Z,47.20
2023-02-16T14:51:26.698Z,47.10
2023-02-16T14:54:14.751Z,46.90
2023-02-16T14:56:44.305Z,46.90
2023-02-16T14:59:34.829Z,46.80
2023-02-16T15:02:39.084Z,46.80
2023-02-16T15:05:23.870Z,46.70
2023-02-16T15:07:57.875Z,46.70
2023-02-16T15:10:27.663Z,46.60
2023-02-16T15:12:55.983Z,46.70
2023-02-16T15:15:43.716Z,46.60
2023-02-16T15:18:17.005Z,46.50
2023-02-16T15:20:46.668Z,46.50
2023-02-16T15:23:27.688Z,46.50
2023-02-16T15:26:01.189Z,46.50
2023-02-16T15:28:38.850Z,46.60
2023-02-16T15:31:17.938Z,46.50
2023-02-16T15:33:58.249Z,46.50
2023-02-16T15:36:32.765Z,46.50
2023-02-16T15:39:14.111Z,46.40
2023-02-16T15:41:45.323Z,46.40
2023-02-16T15:44:29.949Z,46.50
2023-02-16T15:47:10.411Z,46.60
2023-02-16T15:49:39.729Z,46.60
2023-02-16T15:52:19.125Z,46.50
2023-02-16T15:54:48.253Z,46.60
2023-02-16T15:57:30.729Z,46.50
2023-02-16T16:00:04.075Z,46.50
2023-02-16T16:02:38.444Z,46.60
2023-02-16T16:05:09.593Z,46.60
2023-02-16T16:07:41.395Z,46.60
2023-02-16T16:10:32.309Z,46.70
2023-02-16T16:13:03.071Z,46.70
2023-02-16T16:15:32.462Z,46.70
2023-02-16T16:18:00.968Z,46.70
2023-02-16T16:20:37.791Z,46.70
2023-02-16T16:23:24.254Z,46.80
2023-02-16T16:25:51.283Z,47.40
2023-02-16T16:28:29.680Z,46.70
2023-02-16T16:31:17.394Z,46.80
2023-02-16T16:33:57.613Z,46.80
2023-02-16T16:36:28.761Z,46.90
2023-02-16T16:39:28.983Z,46.80
2023-02-16T16:42:14.346Z,46.90
2023-02-16T16:44:51.232Z,46.90
2023-02-16T16:47:28.390Z,46.90
2023-02-16T16:50:05.848Z,46.90
2023-02-16T16:52:47.665Z,46.90
2023-02-16T16:55:21.282Z,46.90
2023-02-16T16:57:49.618Z,46.90
2023-02-16T17:00:17.393Z,46.90
2023-02-16T17:02:44.429Z,42.40
2023-02-16T17:05:11.752Z,42.30
2023-02-16T17:07:38.888Z,42.30
2023-02-16T17:10:06.836Z,42.30
2023-02-16T17:12:34.038Z,44.00
2023-02-16T17:15:02.307Z,45.80
2023-02-16T17:17:28.930Z,46.50
2023-02-16T17:19:55.491Z,46.20
2023-02-16T17:22:22.192Z,45.40
2023-02-16T17:24:48.857Z,45.30
2023-02-16T17:27:15.481Z,45.30
2023-02-16T17:29:43.020Z,45.20
2023-02-16T17:32:09.966Z,45.30
2023-02-16T17:34:36.911Z,45.50
2023-02-16T17:37:07.410Z,45.40
2023-02-16T17:39:35.330Z,45.80
2023-02-16T17:42:02.328Z,46.30
2023-02-16T17:44:28.970Z,46.00
2023-02-16T17:46:55.707Z,46.00
2023-02-16T17:49:22.346Z,46.10
2023-02-16T17:51:49.049Z,46.20
2023-02-16T17:54:15.957Z,46.20
2023-02-16T17:56:45.653Z,46.10
2023-02-16T17:59:16.449Z,46.60
2023-02-16T18:01:44.850Z,46.60
2023-02-16T18:04:11.488Z,46.60
2023-02-16T18:06:38.118Z,46.50
2023-02-16T18:09:04.957Z,46.70
2023-02-16T18:11:31.618Z,46.80
2023-02-16T18:13:58.200Z,46.70
2023-02-16T18:16:27.203Z,47.10
2023-02-16T18:18:54.286Z,46.90
2023-02-16T18:21:20.895Z,46.70
2023-02-16T18:23:47.489Z,46.70
2023-02-16T18:26:15.505Z,46.70
2023-02-16T18:28:42.551Z,46.70
2023-02-16T18:31:09.409Z,46.70
2023-02-16T18:33:36.189Z,47.00
2023-02-16T18:36:03.968Z,47.00
2023-02-16T18:38:31.013Z,47.00
2023-02-16T18:40:57.786Z,47.10
2023-02-16T18:43:24.425Z,47.20
2023-02-16T18:45:51.048Z,47.40
2023-02-16T18:48:17.653Z,47.40
2023-02-16T18:50:44.682Z,47.60
2023-02-16T18:53:11.269Z,47.60
2023-02-16T18:55:37.894Z,47.80
2023-02-16T18:58:08.058Z,47.80
2023-02-16T19:00:36.169Z,47.80
2023-02-16T19:03:03.354Z,47.80
2023-02-16T19:05:30.313Z,47.80
2023-02-16T19:07:57.232Z,48.00
2023-02-16T19:10:24.950Z,48.00
2023-02-16T19:12:51.743Z,48.00
2023-02-16T19:15:18.451Z,48.00
2023-02-16T19:17:45.080Z,48.10
2023-02-16T19:20:16.546Z,48.10
2023-02-16T19:22:43.125Z,48.10
2023-02-16T19:25:09.802Z,48.20
2023-02-16T19:27:36.378Z,48.20
2023-02-16T19:30:03.214Z,48.20
2023-02-16T19:32:30.000Z,48.30
2023-02-16T19:34:56.677Z,48.40
2023-02-16T19:37:23.603Z,48.40
2023-02-16T19:39:50.362Z,48.50
2023-02-16T19:42:17.074Z,48.50
2023-02-16T19:44:43.675Z,47.50
2023-02-16T19:47:10.275Z,46.70
2023-02-16T19:49:36.983Z,46.80
2023-02-16T19:52:04.611Z,47.40
2023-02-16T19:54:34.879Z,47.50
2023-02-16T19:57:02.682Z,47.80
2023-02-16T19:59:29.456Z,47.90
2023-02-16T20:01:56.196Z,47.90
2023-02-16T20:04:23.077Z,47.80
2023-02-16T20:06:49.899Z,48.00
2023-02-16T20:09:18.303Z,48.00
2023-02-16T20:11:44.994Z,48.00
2023-02-16T20:14:12.375Z,48.10
2023-02-16T20:16:40.387Z,48.10
2023-02-16T20:19:07.198Z,48.20
2023-02-16T20:21:34.410Z,48.30
2023-02-16T20:24:04.053Z,48.40
2023-02-16T20:26:36.914Z,48.40
2023-02-16T20:29:06.149Z,48.60
2023-02-16T20:31:41.010Z,48.60
2023-02-16T20:34:08.006Z,48.40
2023-02-16T20:36:35.383Z,48.20
2023-02-16T20:39:02.073Z,48.50
2023-02-16T20:41:28.646Z,48.50
2023-02-16T20:43:55.303Z,48.50
2023-02-16T20:46:23.827Z,48.40
2023-02-16T20:48:50.817Z,48.60
2023-02-16T20:51:18.046Z,48.50
2023-02-16T20:53:44.879Z,48.60
2023-02-16T20:56:16.528Z,48.70
2023-02-16T20:58:45.000Z,49.40
2023-02-16T21:01:19.559Z,48.70
2023-02-16T21:03:46.650Z,48.70
2023-02-16T21:06:13.369Z,48.90
2023-02-16T21:08:40.151Z,48.70
2023-02-16T21:11:07.157Z,48.90
2023-02-16T21:13:34.149Z,49.00
2023-02-16T21:16:00.867Z,49.10
2023-02-16T21:18:27.655Z,48.10
2023-02-16T21:20:54.459Z,49.30
2023-02-16T21:23:21.093Z,49.40
2023-02-16T21:25:47.923Z,48.10
2023-02-16T21:28:14.599Z,46.00
2023-02-16T21:30:41.770Z,48.40
2023-02-16T21:33:09.068Z,48.50
2023-02-16T21:35:35.707Z,48.40
2023-02-16T21:38:02.341Z,48.50
2023-02-16T21:40:47.722Z,48.30
2023-02-16T21:43:14.316Z,48.40
2023-02-16T21:45:40.926Z,48.40
2023-02-16T21:48:26.229Z,48.60
2023-02-16T21:50:52.813Z,49.40
2023-02-16T21:53:19.484Z,50.00
2023-02-16T21:56:05.339Z,50.00
2023-02-16T21:58:33.581Z,50.30
2023-02-16T22:01:00.521Z,50.50
2023-02-16T22:03:27.922Z,50.60
2023-02-16T22:05:54.529Z,50.50
2023-02-16T22:08:21.280Z,50.50
2023-02-16T22:10:47.965Z,50.50
2023-02-16T22:13:14.639Z,50.50
2023-02-16T22:15:41.330Z,50.50
2023-02-16T22:18:08.192Z,50.50
2023-02-16T22:20:34.894Z,50.50
2023-02-16T22:23:01.915Z,50.50
2023-02-16T22:25:28.578Z,50.50
2023-02-16T22:27:55.604Z,50.50
2023-02-16T22:30:22.334Z,50.50
2023-02-16T22:32:50.912Z,50.50
2023-02-16T22:35:17.874Z,50.50
2023-02-16T22:37:44.581Z,50.50
2023-02-16T22:40:11.207Z,50.50
2023-02-16T22:42:38.264Z,50.60
2023-02-16T22:45:05.262Z,50.50
2023-02-16T22:47:31.871Z,50.50
2023-02-16T22:49:58.512Z,50.50
2023-02-16T22:52:25.275Z,50.50
2023-02-16T22:54:52.149Z,50.50
2023-02-16T22:57:19.391Z,50.50
2023-02-16T22:59:45.992Z,50.50
2023-02-16T23:02:12.636Z,50.50
2023-02-16T23:04:40.733Z,50.50
2023-02-16T23:07:08.358Z,50.50
2023-02-16T23:09:34.968Z,50.50
2023-02-16T23:12:02.036Z,50.50
2023-02-16T23:14:29.335Z,50.50
2023-02-16T23:16:56.072Z,50.50
2023-02-16T23:19:26.292Z,50.40
2023-02-16T23:21:54.012Z,50.50
2023-02-16T23:24:22.838Z,50.50
2023-02-16T23:26:49.814Z,50.40
2023-02-16T23:29:17.034Z,50.30
2023-02-16T23:31:46.620Z,50.30
2023-02-16T23:34:13.860Z,50.40
2023-02-16T23:36:40.624Z,50.40
2023-02-16T23:39:10.974Z,50.40
2023-02-16T23:41:37.718Z,50.40
2023-02-16T23:44:05.227Z,50.40
2023-02-16T23:46:32.171Z,50.30
2023-02-16T23:48:58.853Z,50.30
2023-02-16T23:51:26.557Z,50.30
2023-02-16T23:53:53.717Z,50.30
2023-02-16T23:56:22.974Z,50.30
2023-02-16T23:58:50.306Z,50.30
